sensor_id;sensor_type;location;lat;lon;timestamp;pressure;altitude;pressure_sealevel;temperature;humidity
47154;BME280;32907;41.412;2.164;2023-04-25T00:01:59;100319.63;;;21.47;53.47
47154;BME280;32907;41.412;2.164;2023-04-25T00:04:27;100230.69;;;20.82;53.40
47154;BME280;32907;41.412;2.164;2023-04-25T00:06:55;100398.25;;;21.95;53.47
47154;BME280;32907;41.412;2.164;2023-04-25T00:09:23;100430.63;;;22.15;53.26
47154;BME280;32907;41.412;2.164;2023-04-25T00:11:51;100416.66;;;22.03;53.37
47154;BME280;32907;41.412;2.164;2023-04-25T00:14:19;100452.22;;;22.25;53.02
47154;BME280;32907;41.412;2.164;2023-04-25T00:16:48;100445.97;;;22.25;52.96
47154;BME280;32907;41.412;2.164;2023-04-25T00:19:16;100362.13;;;21.75;52.94
47154;BME280;32907;41.412;2.164;2023-04-25T00:21:44;100390.00;;;21.86;52.59
47154;BME280;32907;41.412;2.164;2023-04-25T00:24:13;100421.72;;;22.10;52.83
47154;BME280;32907;41.412;2.164;2023-04-25T00:26:41;100426.38;;;22.09;52.77
47154;BME280;32907;41.412;2.164;2023-04-25T00:29:09;100426.69;;;22.08;52.57
47154;BME280;32907;41.412;2.164;2023-04-25T00:31:38;100407.56;;;21.94;52.41
47154;BME280;32907;41.412;2.164;2023-04-25T00:34:06;100434.66;;;22.18;52.63
47154;BME280;32907;41.412;2.164;2023-04-25T00:36:35;100416.34;;;22.04;52.30
47154;BME280;32907;41.412;2.164;2023-04-25T00:39:03;100404.75;;;21.99;52.45
47154;BME280;32907;41.412;2.164;2023-04-25T00:41:32;100386.03;;;21.92;52.23
47154;BME280;32907;41.412;2.164;2023-04-25T00:44:01;100413.84;;;22.08;52.41
47154;BME280;32907;41.412;2.164;2023-04-25T00:46:31;100395.91;;;22.02;52.45
47154;BME280;32907;41.412;2.164;2023-04-25T00:48:59;100388.47;;;21.94;52.39
47154;BME280;32907;41.412;2.164;2023-04-25T00:51:28;100411.41;;;22.06;52.36
47154;BME280;32907;41.412;2.164;2023-04-25T00:53:57;100408.66;;;22.06;52.32
47154;BME280;32907;41.412;2.164;2023-04-25T00:56:28;100341.50;;;21.69;52.40
47154;BME280;32907;41.412;2.164;2023-04-25T00:58:57;100374.50;;;21.95;52.13
47154;BME280;32907;41.412;2.164;2023-04-25T01:01:25;100333.63;;;21.68;52.10
47154;BME280;32907;41.412;2.164;2023-04-25T01:03:53;100335.56;;;21.67;51.94
47154;BME280;32907;41.412;2.164;2023-04-25T01:06:22;100376.25;;;21.91;52.06
47154;BME280;32907;41.412;2.164;2023-04-25T01:08:51;100343.75;;;21.67;51.87
47154;BME280;32907;41.412;2.164;2023-04-25T01:11:19;100383.19;;;21.97;52.29
47154;BME280;32907;41.412;2.164;2023-04-25T01:13:49;100358.28;;;21.76;52.35
47154;BME280;32907;41.412;2.164;2023-04-25T01:16:18;100395.59;;;22.03;52.15
47154;BME280;32907;41.412;2.164;2023-04-25T01:18:46;100392.00;;;22.08;52.18
47154;BME280;32907;41.412;2.164;2023-04-25T01:21:14;100392.00;;;22.08;51.87
47154;BME280;32907;41.412;2.164;2023-04-25T01:23:43;100378.41;;;22.03;51.93
47154;BME280;32907;41.412;2.164;2023-04-25T01:26:12;100392.88;;;22.03;52.02
47154;BME280;32907;41.412;2.164;2023-04-25T01:28:42;100380.44;;;21.97;51.57
47154;BME280;32907;41.412;2.164;2023-04-25T01:31:15;100385.41;;;21.95;52.06
47154;BME280;32907;41.412;2.164;2023-04-25T01:33:44;100314.47;;;21.45;51.68
47154;BME280;32907;41.412;2.164;2023-04-25T01:36:12;100398.03;;;22.05;51.76
47154;BME280;32907;41.412;2.164;2023-04-25T01:38:41;100334.84;;;21.62;51.57
47154;BME280;32907;41.412;2.164;2023-04-25T01:41:12;100313.75;;;21.54;51.46
47154;BME280;32907;41.412;2.164;2023-04-25T01:43:40;100389.03;;;22.04;51.37
47154;BME280;32907;41.412;2.164;2023-04-25T01:46:08;100402.91;;;22.08;51.76
47154;BME280;32907;41.412;2.164;2023-04-25T01:48:36;100356.75;;;21.84;51.93
47154;BME280;32907;41.412;2.164;2023-04-25T01:51:05;100386.72;;;22.12;51.69
47154;BME280;32907;41.412;2.164;2023-04-25T01:53:33;100380.44;;;21.97;51.44
47154;BME280;32907;41.412;2.164;2023-04-25T01:56:04;100384.91;;;22.07;51.43
47154;BME280;32907;41.412;2.164;2023-04-25T01:58:34;100327.06;;;21.69;51.08
47154;BME280;32907;41.412;2.164;2023-04-25T02:01:20;100344.13;;;21.74;51.57
47154;BME280;32907;41.412;2.164;2023-04-25T02:04:04;100362.38;;;21.88;51.32
47154;BME280;32907;41.412;2.164;2023-04-25T02:06:36;100354.19;;;21.88;51.51
47154;BME280;32907;41.412;2.164;2023-04-25T02:09:04;100366.69;;;22.02;51.51
47154;BME280;32907;41.412;2.164;2023-04-25T02:11:32;100366.31;;;22.09;51.14
47154;BME280;32907;41.412;2.164;2023-04-25T02:14:20;100300.88;;;21.68;50.92
47154;BME280;32907;41.412;2.164;2023-04-25T02:16:56;100291.81;;;21.59;50.98
47154;BME280;32907;41.412;2.164;2023-04-25T02:19:25;100342.03;;;21.94;51.21
47154;BME280;32907;41.412;2.164;2023-04-25T02:21:53;100332.50;;;21.83;51.04
47154;BME280;32907;41.412;2.164;2023-04-25T02:24:21;100360.25;;;21.98;51.29
47154;BME280;32907;41.412;2.164;2023-04-25T02:26:51;100370.22;;;22.03;50.94
47154;BME280;32907;41.412;2.164;2023-04-25T02:29:20;100371.66;;;22.00;51.03
47154;BME280;32907;41.412;2.164;2023-04-25T02:31:49;100369.53;;;21.97;51.27
47154;BME280;32907;41.412;2.164;2023-04-25T02:34:17;100368.72;;;21.97;51.19
47154;BME280;32907;41.412;2.164;2023-04-25T02:36:45;100355.63;;;21.85;51.03
47154;BME280;32907;41.412;2.164;2023-04-25T02:39:14;100351.38;;;21.79;51.21
47154;BME280;32907;41.412;2.164;2023-04-25T02:41:42;100359.06;;;21.91;51.25
47154;BME280;32907;41.412;2.164;2023-04-25T02:44:10;100293.03;;;21.53;51.32
47154;BME280;32907;41.412;2.164;2023-04-25T02:46:37;100355.53;;;21.90;51.10
47154;BME280;32907;41.412;2.164;2023-04-25T02:49:06;100340.47;;;21.79;51.28
47154;BME280;32907;41.412;2.164;2023-04-25T02:51:38;100326.72;;;21.84;51.30
47154;BME280;32907;41.412;2.164;2023-04-25T02:54:06;100322.66;;;21.82;51.38
47154;BME280;32907;41.412;2.164;2023-04-25T02:56:38;100337.63;;;21.84;51.41
47154;BME280;32907;41.412;2.164;2023-04-25T02:59:11;100280.53;;;21.52;51.16
47154;BME280;32907;41.412;2.164;2023-04-25T03:01:39;100352.78;;;21.90;51.48
47154;BME280;32907;41.412;2.164;2023-04-25T03:04:07;100344.94;;;21.75;51.38
47154;BME280;32907;41.412;2.164;2023-04-25T03:06:35;100359.25;;;21.81;51.13
47154;BME280;32907;41.412;2.164;2023-04-25T03:09:03;100374.63;;;21.90;51.25
47154;BME280;32907;41.412;2.164;2023-04-25T03:11:31;100352.78;;;21.90;51.14
47154;BME280;32907;41.412;2.164;2023-04-25T03:14:00;100311.00;;;21.67;51.38
47154;BME280;32907;41.412;2.164;2023-04-25T03:16:29;100305.94;;;21.74;51.01
47154;BME280;32907;41.412;2.164;2023-04-25T03:18:57;100303.69;;;21.76;51.28
47154;BME280;32907;41.412;2.164;2023-04-25T03:21:26;100318.84;;;21.83;51.23
47154;BME280;32907;41.412;2.164;2023-04-25T03:23:53;100314.41;;;21.73;51.17
47154;BME280;32907;41.412;2.164;2023-04-25T03:26:21;100313.41;;;21.69;51.22
47154;BME280;32907;41.412;2.164;2023-04-25T03:28:49;100314.16;;;21.61;51.09
47154;BME280;32907;41.412;2.164;2023-04-25T03:31:18;100345.19;;;21.87;51.05
47154;BME280;32907;41.412;2.164;2023-04-25T03:33:46;100333.09;;;21.79;51.03
47154;BME280;32907;41.412;2.164;2023-04-25T03:36:14;100325.13;;;21.69;50.83
47154;BME280;32907;41.412;2.164;2023-04-25T03:38:42;100341.59;;;21.78;50.64
47154;BME280;32907;41.412;2.164;2023-04-25T03:41:13;100308.19;;;21.59;50.86
47154;BME280;32907;41.412;2.164;2023-04-25T03:43:44;100298.69;;;21.56;50.91
47154;BME280;32907;41.412;2.164;2023-04-25T03:46:13;100295.53;;;21.63;51.00
47154;BME280;32907;41.412;2.164;2023-04-25T03:48:42;100314.13;;;21.74;50.99
47154;BME280;32907;41.412;2.164;2023-04-25T03:51:15;100327.84;;;21.83;50.80
47154;BME280;32907;41.412;2.164;2023-04-25T03:53:44;100295.03;;;21.61;51.09
47154;BME280;32907;41.412;2.164;2023-04-25T03:56:33;100345.19;;;21.87;51.13
47154;BME280;32907;41.412;2.164;2023-04-25T03:59:09;100326.72;;;21.84;51.03
47154;BME280;32907;41.412;2.164;2023-04-25T04:01:37;100302.50;;;21.69;51.20
47154;BME280;32907;41.412;2.164;2023-04-25T04:04:05;100333.78;;;21.85;51.18
47154;BME280;32907;41.412;2.164;2023-04-25T04:06:34;100333.16;;;21.88;51.42
47154;BME280;32907;41.412;2.164;2023-04-25T04:09:09;100321.84;;;21.81;51.27
47154;BME280;32907;41.412;2.164;2023-04-25T04:11:39;100330.94;;;21.90;51.12
47154;BME280;32907;41.412;2.164;2023-04-25T04:14:08;100286.97;;;21.56;51.02
47154;BME280;32907;41.412;2.164;2023-04-25T04:16:39;100334.09;;;21.84;50.74
47154;BME280;32907;41.412;2.164;2023-04-25T04:19:08;100285.16;;;21.51;51.20
47154;BME280;32907;41.412;2.164;2023-04-25T04:21:38;100305.84;;;21.66;51.01
47154;BME280;32907;41.412;2.164;2023-04-25T04:24:06;100327.53;;;21.85;51.29
47154;BME280;32907;41.412;2.164;2023-04-25T04:26:47;100293.94;;;21.62;50.89
47154;BME280;32907;41.412;2.164;2023-04-25T04:29:35;100315.09;;;21.78;51.12
47154;BME280;32907;41.412;2.164;2023-04-25T04:32:24;100303.00;;;21.71;51.18
47154;BME280;32907;41.412;2.164;2023-04-25T04:34:53;100324.16;;;21.88;51.16
47154;BME280;32907;41.412;2.164;2023-04-25T04:37:24;100284.84;;;21.66;51.14
47154;BME280;32907;41.412;2.164;2023-04-25T04:39:52;100269.19;;;21.58;51.19
47154;BME280;32907;41.412;2.164;2023-04-25T04:42:27;100319.22;;;21.90;51.01
47154;BME280;32907;41.412;2.164;2023-04-25T04:45:15;100288.84;;;21.69;51.04
47154;BME280;32907;41.412;2.164;2023-04-25T04:47:55;100320.94;;;21.86;51.02
47154;BME280;32907;41.412;2.164;2023-04-25T04:50:45;100305.63;;;21.76;51.40
47154;BME280;32907;41.412;2.164;2023-04-25T04:53:39;100299.78;;;21.69;51.06
47154;BME280;32907;41.412;2.164;2023-04-25T04:56:14;100278.47;;;21.57;51.00
47154;BME280;32907;41.412;2.164;2023-04-25T04:59:01;100317.84;;;21.78;51.16
47154;BME280;32907;41.412;2.164;2023-04-25T05:01:52;100306.53;;;21.71;50.69
47154;BME280;32907;41.412;2.164;2023-04-25T05:04:56;100327.31;;;21.81;50.82
47154;BME280;32907;41.412;2.164;2023-04-25T05:07:46;100295.34;;;21.59;50.46
47154;BME280;32907;41.412;2.164;2023-04-25T05:10:31;100288.31;;;21.44;50.43
47154;BME280;32907;41.412;2.164;2023-04-25T05:13:19;100208.78;;;20.87;50.24
47154;BME280;32907;41.412;2.164;2023-04-25T05:16:06;100336.63;;;21.80;50.28
47154;BME280;32907;41.412;2.164;2023-04-25T05:18:39;100284.78;;;21.44;50.18
47154;BME280;32907;41.412;2.164;2023-04-25T05:21:21;100297.31;;;21.45;50.41
47154;BME280;32907;41.412;2.164;2023-04-25T05:24:08;100290.66;;;21.37;50.44
47154;BME280;32907;41.412;2.164;2023-04-25T05:26:45;100340.72;;;21.69;50.46
47154;BME280;32907;41.412;2.164;2023-04-25T05:29:31;100344.41;;;21.73;50.87
47154;BME280;32907;41.412;2.164;2023-04-25T05:32:22;100349.28;;;21.76;50.99
47154;BME280;32907;41.412;2.164;2023-04-25T05:34:53;100347.16;;;21.73;51.27
47154;BME280;32907;41.412;2.164;2023-04-25T05:37:31;100309.91;;;21.55;51.16
47154;BME280;32907;41.412;2.164;2023-04-25T05:40:09;100306.59;;;21.58;50.99
47154;BME280;32907;41.412;2.164;2023-04-25T05:42:46;100342.88;;;21.81;50.92
47154;BME280;32907;41.412;2.164;2023-04-25T05:45:31;100322.41;;;21.69;50.93
47154;BME280;32907;41.412;2.164;2023-04-25T05:48:04;100338.84;;;21.78;50.78
47154;BME280;32907;41.412;2.164;2023-04-25T05:50:42;100305.88;;;21.52;50.67
47154;BME280;32907;41.412;2.164;2023-04-25T05:53:23;100314.38;;;21.50;50.41
47154;BME280;32907;41.412;2.164;2023-04-25T05:55:57;100357.97;;;21.78;50.52
47154;BME280;32907;41.412;2.164;2023-04-25T05:58:26;100355.41;;;21.82;50.49
47154;BME280;32907;41.412;2.164;2023-04-25T06:00:54;100293.34;;;21.51;50.64
47154;BME280;32907;41.412;2.164;2023-04-25T06:03:23;100360.34;;;21.93;50.58
47154;BME280;32907;41.412;2.164;2023-04-25T06:05:51;100311.41;;;21.61;50.84
47154;BME280;32907;41.412;2.164;2023-04-25T06:08:20;100362.03;;;22.03;50.89
47154;BME280;32907;41.412;2.164;2023-04-25T06:10:48;100305.22;;;21.69;50.61
47154;BME280;32907;41.412;2.164;2023-04-25T06:13:16;100321.69;;;21.77;51.06
47154;BME280;32907;41.412;2.164;2023-04-25T06:15:44;100297.84;;;21.69;50.83
47154;BME280;32907;41.412;2.164;2023-04-25T06:18:12;100338.50;;;21.93;51.17
47154;BME280;32907;41.412;2.164;2023-04-25T06:20:40;100356.88;;;22.01;51.06
47154;BME280;32907;41.412;2.164;2023-04-25T06:23:08;100368.31;;;22.03;50.86
47154;BME280;32907;41.412;2.164;2023-04-25T06:25:50;100314.94;;;21.75;51.09
47154;BME280;32907;41.412;2.164;2023-04-25T06:28:18;100348.31;;;21.94;51.11
47154;BME280;32907;41.412;2.164;2023-04-25T06:30:46;100328.50;;;21.89;51.33
47154;BME280;32907;41.412;2.164;2023-04-25T06:33:18;100349.19;;;22.03;51.29
47154;BME280;32907;41.412;2.164;2023-04-25T06:35:45;100359.41;;;22.12;51.20
47154;BME280;32907;41.412;2.164;2023-04-25T06:38:16;100342.75;;;21.99;50.85
47154;BME280;32907;41.412;2.164;2023-04-25T06:40:48;100342.59;;;22.04;50.58
47154;BME280;32907;41.412;2.164;2023-04-25T06:43:17;100301.38;;;21.70;50.74
47154;BME280;32907;41.412;2.164;2023-04-25T06:45:57;100354.16;;;22.15;50.08
47154;BME280;32907;41.412;2.164;2023-04-25T06:48:29;100364.75;;;22.17;50.16
47154;BME280;32907;41.412;2.164;2023-04-25T06:50:58;100230.75;;;21.32;49.83
47154;BME280;32907;41.412;2.164;2023-04-25T06:53:27;100386.13;;;22.15;50.28
47154;BME280;32907;41.412;2.164;2023-04-25T06:55:59;100329.84;;;21.91;49.78
47154;BME280;32907;41.412;2.164;2023-04-25T06:58:38;100104.56;;;20.40;49.72
47154;BME280;32907;41.412;2.164;2023-04-25T07:01:17;100218.94;;;21.23;49.59
47154;BME280;32907;41.412;2.164;2023-04-25T07:03:45;100159.25;;;20.85;49.54
47154;BME280;32907;41.412;2.164;2023-04-25T07:06:17;100329.28;;;22.03;49.66
47154;BME280;32907;41.412;2.164;2023-04-25T07:08:46;100113.84;;;20.67;49.78
47154;BME280;32907;41.412;2.164;2023-04-25T07:11:15;100139.88;;;20.73;49.40
47154;BME280;32907;41.412;2.164;2023-04-25T07:13:43;100117.69;;;20.52;49.90
47154;BME280;32907;41.412;2.164;2023-04-25T07:16:11;100286.66;;;21.57;49.66
47154;BME280;32907;41.412;2.164;2023-04-25T07:18:39;100362.50;;;22.19;49.95
47154;BME280;32907;41.412;2.164;2023-04-25T07:21:07;100346.06;;;22.10;49.85
47154;BME280;32907;41.412;2.164;2023-04-25T07:23:37;100350.50;;;22.06;49.74
47154;BME280;32907;41.412;2.164;2023-04-25T07:26:13;100366.38;;;22.18;49.38
47154;BME280;32907;41.412;2.164;2023-04-25T07:29:01;100343.88;;;21.98;49.88
47154;BME280;32907;41.412;2.164;2023-04-25T07:31:28;100362.53;;;22.05;49.66
47154;BME280;32907;41.412;2.164;2023-04-25T07:33:58;100341.56;;;21.92;49.71
47154;BME280;32907;41.412;2.164;2023-04-25T07:36:30;100312.69;;;21.77;49.82
47154;BME280;32907;41.412;2.164;2023-04-25T07:38:58;100336.59;;;21.94;49.95
47154;BME280;32907;41.412;2.164;2023-04-25T07:41:26;100340.00;;;21.99;49.69
47154;BME280;32907;41.412;2.164;2023-04-25T07:43:54;100369.47;;;22.25;49.76
47154;BME280;32907;41.412;2.164;2023-04-25T07:46:22;100358.25;;;22.26;49.60
47154;BME280;32907;41.412;2.164;2023-04-25T07:48:53;100101.75;;;20.59;49.71
47154;BME280;32907;41.412;2.164;2023-04-25T07:51:21;100059.38;;;20.39;50.06
47154;BME280;32907;41.412;2.164;2023-04-25T07:53:54;100195.50;;;21.22;49.97
47154;BME280;32907;41.412;2.164;2023-04-25T07:56:26;100350.47;;;22.20;50.18
47154;BME280;32907;41.412;2.164;2023-04-25T07:58:56;100304.31;;;21.96;49.90
47154;BME280;32907;41.412;2.164;2023-04-25T08:01:24;100349.41;;;22.29;50.10
47154;BME280;32907;41.412;2.164;2023-04-25T08:04:03;100287.13;;;21.95;49.85
47154;BME280;32907;41.412;2.164;2023-04-25T08:06:46;100335.75;;;22.29;49.71
47154;BME280;32907;41.412;2.164;2023-04-25T08:09:23;100312.88;;;22.17;50.08
47154;BME280;32907;41.412;2.164;2023-04-25T08:11:52;100239.03;;;21.63;49.76
47154;BME280;32907;41.412;2.164;2023-04-25T08:14:30;100353.16;;;22.33;49.90
47154;BME280;32907;41.412;2.164;2023-04-25T08:17:04;100254.59;;;21.63;50.04
47154;BME280;32907;41.412;2.164;2023-04-25T08:19:35;100142.66;;;20.95;49.91
47154;BME280;32907;41.412;2.164;2023-04-25T08:22:03;100258.72;;;21.74;49.99
47154;BME280;32907;41.412;2.164;2023-04-25T08:24:42;100133.53;;;21.00;50.15
47154;BME280;32907;41.412;2.164;2023-04-25T08:27:11;100343.13;;;22.29;49.99
47154;BME280;32907;41.412;2.164;2023-04-25T08:29:42;100354.00;;;22.43;50.17
47154;BME280;32907;41.412;2.164;2023-04-25T08:32:10;100080.34;;;20.66;49.99
47154;BME280;32907;41.412;2.164;2023-04-25T08:34:45;100145.84;;;21.11;50.07
47154;BME280;32907;41.412;2.164;2023-04-25T08:37:17;100221.09;;;21.48;50.48
47154;BME280;32907;41.412;2.164;2023-04-25T08:39:54;100106.34;;;20.86;50.31
47154;BME280;32907;41.412;2.164;2023-04-25T08:42:44;100183.47;;;21.23;50.56
47154;BME280;32907;41.412;2.164;2023-04-25T08:45:14;100225.56;;;21.44;50.74
47154;BME280;32907;41.412;2.164;2023-04-25T08:47:45;100111.41;;;20.79;50.64
47154;BME280;32907;41.412;2.164;2023-04-25T08:50:17;100231.72;;;21.50;50.36
47154;BME280;32907;41.412;2.164;2023-04-25T08:52:49;100105.41;;;20.55;50.49
47154;BME280;32907;41.412;2.164;2023-04-25T08:55:26;100185.22;;;21.19;50.72
47154;BME280;32907;41.412;2.164;2023-04-25T08:57:59;100097.00;;;20.65;51.13
47154;BME280;32907;41.412;2.164;2023-04-25T09:00:29;100085.22;;;20.56;50.85
47154;BME280;32907;41.412;2.164;2023-04-25T09:02:58;100314.63;;;21.99;51.07
47154;BME280;32907;41.412;2.164;2023-04-25T09:05:33;100338.63;;;22.24;51.00
47154;BME280;32907;41.412;2.164;2023-04-25T09:08:02;100301.16;;;22.02;50.98
47154;BME280;32907;41.412;2.164;2023-04-25T09:10:30;100289.88;;;21.95;51.01
47154;BME280;32907;41.412;2.164;2023-04-25T09:13:11;100321.75;;;22.22;51.37
47154;BME280;32907;41.412;2.164;2023-04-25T09:15:59;100300.94;;;22.13;51.24
47154;BME280;32907;41.412;2.164;2023-04-25T09:18:59;100313.03;;;22.20;51.25
47154;BME280;32907;41.412;2.164;2023-04-25T09:21:36;100254.19;;;21.69;50.93
47154;BME280;32907;41.412;2.164;2023-04-25T09:24:12;100115.66;;;20.85;51.03
47154;BME280;32907;41.412;2.164;2023-04-25T09:26:42;100287.59;;;22.11;51.22
47154;BME280;32907;41.412;2.164;2023-04-25T09:29:11;100202.59;;;21.59;51.21
47154;BME280;32907;41.412;2.164;2023-04-25T09:31:41;100195.44;;;21.49;50.82
47154;BME280;32907;41.412;2.164;2023-04-25T09:34:11;100271.25;;;21.97;51.02
47154;BME280;32907;41.412;2.164;2023-04-25T09:36:54;100070.00;;;20.77;50.93
47154;BME280;32907;41.412;2.164;2023-04-25T09:39:59;100204.56;;;21.67;51.01
47154;BME280;32907;41.412;2.164;2023-04-25T09:42:32;100223.59;;;21.81;51.24
47154;BME280;32907;41.412;2.164;2023-04-25T09:45:03;100305.16;;;22.19;51.21
47154;BME280;32907;41.412;2.164;2023-04-25T09:47:37;100204.00;;;21.57;51.43
47154;BME280;32907;41.412;2.164;2023-04-25T09:50:16;100313.84;;;22.43;51.06
47154;BME280;32907;41.412;2.164;2023-04-25T09:53:02;100328.19;;;22.49;51.50
47154;BME280;32907;41.412;2.164;2023-04-25T09:55:42;100334.66;;;22.61;51.11
47154;BME280;32907;41.412;2.164;2023-04-25T09:58:11;100322.88;;;22.52;50.69
47154;BME280;32907;41.412;2.164;2023-04-25T10:00:41;100241.19;;;22.11;51.03
47154;BME280;32907;41.412;2.164;2023-04-25T10:03:24;100199.72;;;21.87;50.76
47154;BME280;32907;41.412;2.164;2023-04-25T10:06:19;100046.41;;;20.86;50.44
47154;BME280;32907;41.412;2.164;2023-04-25T10:08:52;100136.53;;;21.48;50.50
47154;BME280;32907;41.412;2.164;2023-04-25T10:11:24;100038.00;;;20.83;50.77
47154;BME280;32907;41.412;2.164;2023-04-25T10:13:54;100287.16;;;22.40;50.64
47154;BME280;32907;41.412;2.164;2023-04-25T10:16:24;100139.50;;;21.38;50.68
47154;BME280;32907;41.412;2.164;2023-04-25T10:18:53;100247.63;;;22.15;50.35
47154;BME280;32907;41.412;2.164;2023-04-25T10:21:21;100005.06;;;20.71;50.72
47154;BME280;32907;41.412;2.164;2023-04-25T10:23:49;100063.63;;;21.18;50.56
47154;BME280;32907;41.412;2.164;2023-04-25T10:26:19;100304.47;;;22.67;50.46
47154;BME280;32907;41.412;2.164;2023-04-25T10:28:58;100119.31;;;21.39;50.13
47154;BME280;32907;41.412;2.164;2023-04-25T10:31:27;100299.00;;;22.67;50.25
47154;BME280;32907;41.412;2.164;2023-04-25T10:33:55;100260.81;;;22.44;50.06
47154;BME280;32907;41.412;2.164;2023-04-25T10:36:24;100280.16;;;22.56;50.08
47154;BME280;32907;41.412;2.164;2023-04-25T10:38:55;100265.13;;;22.45;49.68
47154;BME280;32907;41.412;2.164;2023-04-25T10:41:22;100262.72;;;22.44;49.93
47154;BME280;32907;41.412;2.164;2023-04-25T10:43:59;100256.13;;;22.45;49.31
47154;BME280;32907;41.412;2.164;2023-04-25T10:46:29;100270.84;;;22.57;49.84
47154;BME280;32907;41.412;2.164;2023-04-25T10:49:01;100294.53;;;22.71;49.43
47154;BME280;32907;41.412;2.164;2023-04-25T10:51:31;100233.88;;;22.29;49.42
47154;BME280;32907;41.412;2.164;2023-04-25T10:54:21;100306.09;;;22.68;49.40
47154;BME280;32907;41.412;2.164;2023-04-25T10:56:50;100284.66;;;22.61;49.56
47154;BME280;32907;41.412;2.164;2023-04-25T10:59:24;100289.88;;;22.71;49.30
47154;BME280;32907;41.412;2.164;2023-04-25T11:01:53;100278.41;;;22.60;49.50
47154;BME280;32907;41.412;2.164;2023-04-25T11:04:25;100282.16;;;22.73;50.44
47154;BME280;32907;41.412;2.164;2023-04-25T11:07:16;100277.19;;;22.75;49.86
47154;BME280;32907;41.412;2.164;2023-04-25T11:09:50;100251.25;;;22.64;50.22
47154;BME280;32907;41.412;2.164;2023-04-25T11:12:18;100262.56;;;22.71;50.51
47154;BME280;32907;41.412;2.164;2023-04-25T11:14:45;100238.03;;;22.57;49.98
47154;BME280;32907;41.412;2.164;2023-04-25T11:17:13;100233.84;;;22.51;50.13
47154;BME280;32907;41.412;2.164;2023-04-25T11:19:41;100266.41;;;22.70;50.22
47154;BME280;32907;41.412;2.164;2023-04-25T11:22:09;100234.66;;;22.60;50.10
47154;BME280;32907;41.412;2.164;2023-04-25T11:24:38;100253.53;;;22.71;50.53
47154;BME280;32907;41.412;2.164;2023-04-25T11:27:06;100278.25;;;22.88;50.35
47154;BME280;32907;41.412;2.164;2023-04-25T11:29:34;100265.47;;;22.83;50.15
47154;BME280;32907;41.412;2.164;2023-04-25T11:32:02;100270.50;;;22.90;50.61
47154;BME280;32907;41.412;2.164;2023-04-25T11:34:31;100229.41;;;22.64;50.83
47154;BME280;32907;41.412;2.164;2023-04-25T11:37:01;100266.28;;;22.84;50.81
47154;BME280;32907;41.412;2.164;2023-04-25T11:39:30;100242.28;;;22.72;50.22
47154;BME280;32907;41.412;2.164;2023-04-25T11:41:58;100244.69;;;22.74;50.07
47154;BME280;32907;41.412;2.164;2023-04-25T11:44:46;100249.84;;;22.75;50.37
47154;BME280;32907;41.412;2.164;2023-04-25T11:47:14;100268.03;;;22.80;50.76
47154;BME280;32907;41.412;2.164;2023-04-25T11:49:42;100249.50;;;22.68;50.71
47154;BME280;32907;41.412;2.164;2023-04-25T11:52:11;100246.75;;;22.68;51.87
47154;BME280;32907;41.412;2.164;2023-04-25T11:54:40;100264.50;;;22.79;51.78
47154;BME280;32907;41.412;2.164;2023-04-25T11:57:11;100238.88;;;22.67;51.91
47154;BME280;32907;41.412;2.164;2023-04-25T11:59:40;100260.47;;;22.77;52.31
47154;BME280;32907;41.412;2.164;2023-04-25T12:02:08;100258.84;;;22.76;52.38
47154;BME280;32907;41.412;2.164;2023-04-25T12:04:36;100249.53;;;22.77;52.65
47154;BME280;32907;41.412;2.164;2023-04-25T12:07:09;100244.69;;;22.74;52.92
47154;BME280;32907;41.412;2.164;2023-04-25T12:09:37;100223.25;;;22.58;52.90
47154;BME280;32907;41.412;2.164;2023-04-25T12:12:09;100265.19;;;22.85;52.50
47154;BME280;32907;41.412;2.164;2023-04-25T12:14:37;100213.75;;;22.47;52.86
47154;BME280;32907;41.412;2.164;2023-04-25T12:17:05;100268.66;;;22.77;52.85
47154;BME280;32907;41.412;2.164;2023-04-25T12:19:37;100285.63;;;22.87;52.86
47154;BME280;32907;41.412;2.164;2023-04-25T12:22:22;100284.50;;;22.88;53.00
47154;BME280;32907;41.412;2.164;2023-04-25T12:24:51;100280.16;;;22.87;52.57
47154;BME280;32907;41.412;2.164;2023-04-25T12:27:21;100289.19;;;22.88;52.68
47154;BME280;32907;41.412;2.164;2023-04-25T12:29:56;100231.47;;;22.58;52.34
47154;BME280;32907;41.412;2.164;2023-04-25T12:32:24;100266.44;;;22.79;52.56
47154;BME280;32907;41.412;2.164;2023-04-25T12:34:52;100274.38;;;22.89;52.42
47154;BME280;32907;41.412;2.164;2023-04-25T12:37:20;100280.53;;;22.95;52.23
47154;BME280;32907;41.412;2.164;2023-04-25T12:39:48;100271.16;;;22.87;52.35
47154;BME280;32907;41.412;2.164;2023-04-25T12:42:16;100286.47;;;22.97;52.29
47154;BME280;32907;41.412;2.164;2023-04-25T12:44:44;100265.94;;;22.77;52.50
47154;BME280;32907;41.412;2.164;2023-04-25T12:47:12;100298.53;;;22.96;52.42
47154;BME280;32907;41.412;2.164;2023-04-25T12:49:40;100243.53;;;22.66;52.11
47154;BME280;32907;41.412;2.164;2023-04-25T12:52:08;100266.28;;;22.84;52.23
47154;BME280;32907;41.412;2.164;2023-04-25T12:54:36;100240.00;;;22.66;52.07
47154;BME280;32907;41.412;2.164;2023-04-25T12:57:04;100290.78;;;22.89;52.25
47154;BME280;32907;41.412;2.164;2023-04-25T12:59:32;100291.28;;;23.00;51.95
47154;BME280;32907;41.412;2.164;2023-04-25T13:02:00;100274.63;;;22.79;52.55
47154;BME280;32907;41.412;2.164;2023-04-25T13:04:28;100278.72;;;22.90;52.40
47154;BME280;32907;41.412;2.164;2023-04-25T13:06:56;100304.47;;;22.98;52.70
47154;BME280;32907;41.412;2.164;2023-04-25T13:09:24;100252.22;;;22.68;52.61
47154;BME280;32907;41.412;2.164;2023-04-25T13:11:52;100292.75;;;22.97;52.08
47154;BME280;32907;41.412;2.164;2023-04-25T13:14:24;100288.88;;;22.98;51.95
47154;BME280;32907;41.412;2.164;2023-04-25T13:17:01;100279.84;;;22.89;51.92